createdAt,value
2022-11-05T00:00:02.448Z,9.60
2022-11-05T00:03:04.246Z,9.60
2022-11-05T00:06:11.400Z,9.60
2022-11-05T00:09:16.676Z,9.60
2022-11-05T00:12:23.163Z,9.60
2022-11-05T00:15:29.823Z,9.60
2022-11-05T00:18:17.611Z,9.60
2022-11-05T00:21:05.573Z,9.60
2022-11-05T00:24:24.118Z,9.60
2022-11-05T00:27:12.471Z,9.60
2022-11-05T00:30:00.518Z,9.60
2022-11-05T00:32:50.260Z,9.60
2022-11-05T00:35:38.157Z,9.60
2022-11-05T00:38:25.977Z,9.60
2022-11-05T00:41:13.826Z,9.60
2022-11-05T00:44:19.206Z,9.60
2022-11-05T00:47:20.923Z,9.60
2022-11-05T00:50:10.988Z,9.60
2022-11-05T00:53:00.502Z,9.60
2022-11-05T00:55:48.341Z,9.50
2022-11-05T00:58:36.250Z,9.50
2022-11-05T01:01:24.165Z,9.50
2022-11-05T01:04:12.128Z,9.50
2022-11-05T01:07:01.169Z,9.40
2022-11-05T01:09:48.884Z,9.40
2022-11-05T01:12:36.628Z,9.40
2022-11-05T01:15:24.448Z,9.30
2022-11-05T01:18:12.200Z,9.30
2022-11-05T01:20:59.934Z,9.30
2022-11-05T01:23:49.907Z,9.30
2022-11-05T01:26:37.611Z,9.30
2022-11-05T01:29:25.330Z,9.30
2022-11-05T01:32:13.112Z,9.30
2022-11-05T01:35:00.855Z,9.30
2022-11-05T01:37:48.710Z,9.30
2022-11-05T01:40:37.813Z,9.30
2022-11-05T01:43:25.517Z,9.30
2022-11-05T01:46:13.251Z,9.30
2022-11-05T01:49:05.358Z,9.20
2022-11-05T01:51:53.307Z,9.30
2022-11-05T01:54:41.084Z,9.20
2022-11-05T01:57:30.554Z,9.20
2022-11-05T02:00:18.389Z,9.20
2022-11-05T02:03:06.248Z,9.20
2022-11-05T02:05:55.671Z,9.30
2022-11-05T02:08:49.731Z,9.20
2022-11-05T02:11:37.558Z,9.20
2022-11-05T02:14:26.688Z,9.20
2022-11-05T02:17:18.740Z,9.20
2022-11-05T02:20:15.486Z,9.20
2022-11-05T02:23:19.768Z,9.20
2022-11-05T02:26:39.646Z,9.20
2022-11-05T02:29:34.849Z,9.20
2022-11-05T02:32:30.906Z,9.10
2022-11-05T02:35:23.545Z,9.10
2022-11-05T02:38:14.183Z,9.00
2022-11-05T02:41:05.661Z,9.00
2022-11-05T02:44:00.057Z,9.10
2022-11-05T02:46:49.894Z,9.00
2022-11-05T02:49:42.351Z,9.00
2022-11-05T02:52:34.789Z,9.10
2022-11-05T02:55:25.455Z,9.10
2022-11-05T02:58:13.956Z,9.10
2022-11-05T03:01:06.653Z,9.10
2022-11-05T03:03:56.161Z,9.00
2022-11-05T03:06:50.333Z,9.00
2022-11-05T03:09:59.928Z,9.00
2022-11-05T03:12:52.031Z,9.00
2022-11-05T03:15:48.674Z,9.00
2022-11-05T03:18:40.638Z,9.00
2022-11-05T03:21:32.925Z,8.90
2022-11-05T03:24:24.279Z,8.90
2022-11-05T03:27:14.230Z,9.00
2022-11-05T03:30:03.025Z,9.00
2022-11-05T03:32:51.775Z,9.00
2022-11-05T03:35:41.225Z,9.00
2022-11-05T03:38:30.128Z,8.90
2022-11-05T03:41:21.482Z,8.80
2022-11-05T03:44:10.113Z,8.80
2022-11-05T03:47:01.958Z,8.80
2022-11-05T03:49:53.362Z,8.70
2022-11-05T03:52:44.933Z,8.70
2022-11-05T03:55:35.307Z,8.70
2022-11-05T03:58:24.998Z,8.60
2022-11-05T04:01:12.969Z,8.60
2022-11-05T04:04:00.725Z,8.60
2022-11-05T04:07:06.302Z,8.60
2022-11-05T04:10:11.890Z,8.60
2022-11-05T04:13:17.450Z,8.50
2022-11-05T04:16:24.617Z,8.50
2022-11-05T04:19:12.477Z,8.50
2022-11-05T04:22:17.986Z,8.40
2022-11-05T04:25:06.326Z,8.30
2022-11-05T04:27:54.253Z,8.30
2022-11-05T04:30:41.436Z,8.20
2022-11-05T04:33:31.800Z,8.20
2022-11-05T04:36:19.822Z,8.20
2022-11-05T04:39:07.702Z,8.20
2022-11-05T04:41:55.505Z,8.10
2022-11-05T04:44:43.354Z,8.10
2022-11-05T04:47:31.188Z,8.00
2022-11-05T04:50:20.409Z,8.00
2022-11-05T04:53:08.466Z,8.00
2022-11-05T04:55:56.378Z,8.00
2022-11-05T04:58:44.401Z,8.00
2022-11-05T05:01:32.187Z,8.00
2022-11-05T05:04:20.657Z,8.00
2022-11-05T05:07:09.919Z,8.00
2022-11-05T05:09:57.632Z,7.90
2022-11-05T05:12:45.348Z,7.80
2022-11-05T05:15:33.268Z,7.80
2022-11-05T05:18:21.290Z,7.70
2022-11-05T05:21:27.096Z,7.70
2022-11-05T05:24:17.076Z,7.70
2022-11-05T05:27:04.945Z,7.70
2022-11-05T05:29:52.659Z,7.80
2022-11-05T05:32:40.358Z,7.70
2022-11-05T05:35:28.095Z,7.80
2022-11-05T05:38:15.836Z,7.80
2022-11-05T05:41:05.029Z,7.70
2022-11-05T05:43:52.937Z,7.70
2022-11-05T05:46:40.650Z,7.60
2022-11-05T05:49:28.598Z,7.50
2022-11-05T05:52:16.338Z,7.50
2022-11-05T05:55:04.619Z,7.50
2022-11-05T05:57:54.618Z,7.50
2022-11-05T06:00:42.282Z,7.50
2022-11-05T06:03:30.104Z,7.50
2022-11-05T06:06:20.808Z,7.50
2022-11-05T06:09:08.605Z,7.40
2022-11-05T06:11:56.365Z,7.30
2022-11-05T06:14:45.396Z,7.30
2022-11-05T06:17:33.852Z,7.20
2022-11-05T06:20:22.087Z,7.10
2022-11-05T06:23:10.209Z,7.10
2022-11-05T06:26:00.066Z,7.10
2022-11-05T06:28:47.805Z,7.20
2022-11-05T06:31:36.885Z,7.30
2022-11-05T06:34:24.595Z,7.30
2022-11-05T06:37:12.486Z,7.20
2022-11-05T06:40:00.287Z,7.30
2022-11-05T06:42:52.502Z,7.30
2022-11-05T06:45:40.220Z,7.30
2022-11-05T06:48:29.626Z,7.30
2022-11-05T06:51:17.321Z,7.20
2022-11-05T06:54:05.100Z,7.20
2022-11-05T06:56:52.803Z,7.30
2022-11-05T06:59:40.825Z,7.30
2022-11-05T07:02:28.600Z,7.40
2022-11-05T07:05:17.998Z,7.40
2022-11-05T07:08:05.887Z,7.40
2022-11-05T07:10:53.585Z,7.40
2022-11-05T07:13:41.289Z,7.40
2022-11-05T07:16:29.001Z,7.40
2022-11-05T07:19:16.751Z,7.40
2022-11-05T07:22:05.868Z,7.40
2022-11-05T07:24:53.602Z,7.40
2022-11-05T07:27:41.369Z,7.40
2022-11-05T07:30:29.496Z,7.50
2022-11-05T07:33:17.280Z,7.50
2022-11-05T07:36:05.218Z,7.60
2022-11-05T07:38:59.949Z,7.60
2022-11-05T07:41:48.160Z,7.70
2022-11-05T07:44:35.906Z,7.70
2022-11-05T07:47:23.617Z,7.80
2022-11-05T07:50:11.560Z,7.90
2022-11-05T07:53:02.738Z,8.00
2022-11-05T07:55:52.555Z,8.00
2022-11-05T07:58:40.358Z,8.10
2022-11-05T08:01:28.187Z,8.10
2022-11-05T08:04:16.133Z,8.20
2022-11-05T08:07:07.222Z,8.20
2022-11-05T08:09:55.038Z,8.30
2022-11-05T08:12:44.116Z,8.30
2022-11-05T08:15:32.275Z,8.40
2022-11-05T08:18:22.281Z,8.40
2022-11-05T08:21:10.042Z,8.50
2022-11-05T08:23:57.790Z,8.50
2022-11-05T08:26:45.477Z,8.60
2022-11-05T08:29:34.578Z,8.70
2022-11-05T08:32:22.613Z,8.80
2022-11-05T08:35:10.313Z,8.80
2022-11-05T08:37:58.936Z,8.90
2022-11-05T08:40:47.683Z,9.00
2022-11-05T08:43:35.519Z,9.00
2022-11-05T08:46:24.599Z,9.00
2022-11-05T08:49:12.446Z,9.00
2022-11-05T08:52:00.142Z,9.10
2022-11-05T08:54:48.050Z,9.20
2022-11-05T08:57:35.774Z,9.30
2022-11-05T09:00:23.568Z,9.40
2022-11-05T09:03:12.972Z,9.50
2022-11-05T09:06:00.925Z,9.60
2022-11-05T09:08:48.644Z,9.60
2022-11-05T09:12:05.258Z,9.70
2022-11-05T09:14:44.084Z,9.80
2022-11-05T09:17:31.825Z,9.80
2022-11-05T09:20:21.297Z,10.00
2022-11-05T09:23:10.122Z,10.00
2022-11-05T09:25:58.087Z,10.10
2022-11-05T09:28:45.797Z,10.20
2022-11-05T09:31:33.561Z,10.30
2022-11-05T09:34:21.299Z,10.40
2022-11-05T09:37:11.592Z,10.50
2022-11-05T09:39:59.282Z,10.70
2022-11-05T09:42:47.520Z,10.80
2022-11-05T09:45:36.314Z,10.80
2022-11-05T09:48:25.761Z,10.90
2022-11-05T09:51:20.840Z,10.90
2022-11-05T09:54:28.142Z,10.90
2022-11-05T09:57:17.525Z,10.90
2022-11-05T10:00:06.345Z,10.90
2022-11-05T10:02:56.401Z,11.10
2022-11-05T10:05:44.841Z,11.20
2022-11-05T10:08:34.850Z,11.30
2022-11-05T10:11:26.113Z,11.30
2022-11-05T10:14:16.619Z,11.20
2022-11-05T10:17:05.835Z,11.20
2022-11-05T10:19:56.572Z,11.20
2022-11-05T10:22:49.374Z,11.20
2022-11-05T10:25:39.296Z,11.20
2022-11-05T10:28:29.219Z,11.10
2022-11-05T10:31:20.961Z,11.10
2022-11-05T10:34:13.686Z,11.10
2022-11-05T10:37:01.410Z,11.00
2022-11-05T10:39:49.795Z,11.10
2022-11-05T10:42:46.185Z,11.10
2022-11-05T10:45:41.372Z,11.10
2022-11-05T10:48:39.391Z,11.00
2022-11-05T10:51:32.723Z,11.00
2022-11-05T10:54:22.805Z,10.90
2022-11-05T10:57:25.406Z,10.90
2022-11-05T11:00:20.559Z,10.80
2022-11-05T11:03:29.742Z,10.70
2022-11-05T11:06:22.722Z,10.60
2022-11-05T11:09:20.325Z,10.60
2022-11-05T11:12:08.950Z,10.70
2022-11-05T11:15:03.876Z,10.80
2022-11-05T11:17:51.733Z,10.90
2022-11-05T11:20:44.357Z,11.00
2022-11-05T11:23:37.037Z,11.00
2022-11-05T11:26:25.370Z,11.10
2022-11-05T11:29:14.360Z,11.20
2022-11-05T11:32:02.580Z,11.30
2022-11-05T11:34:52.158Z,11.30
2022-11-05T11:37:42.154Z,11.30
2022-11-05T11:40:31.389Z,11.40
2022-11-05T11:43:28.020Z,11.40
2022-11-05T11:46:16.571Z,11.50
2022-11-05T11:49:04.836Z,11.50
2022-11-05T11:51:54.657Z,11.50
2022-11-05T11:54:43.792Z,11.60
2022-11-05T11:57:31.535Z,11.60
2022-11-05T12:00:20.280Z,11.60
2022-11-05T12:03:23.939Z,11.50
2022-11-05T12:06:16.053Z,11.50
2022-11-05T12:09:07.190Z,11.60
2022-11-05T12:12:01.178Z,11.80
2022-11-05T12:14:53.179Z,11.90
2022-11-05T12:17:48.027Z,11.90
2022-11-05T12:20:48.389Z,11.80
2022-11-05T12:23:52.177Z,11.60
2022-11-05T12:26:47.288Z,11.70
2022-11-05T12:29:48.054Z,11.70
2022-11-05T12:32:41.641Z,11.50
2022-11-05T12:35:45.707Z,11.40
2022-11-05T12:38:54.659Z,11.30
2022-11-05T12:41:46.692Z,11.40
2022-11-05T12:44:44.514Z,11.50
2022-11-05T12:47:49.316Z,11.30
2022-11-05T12:50:40.344Z,11.30
2022-11-05T12:53:46.436Z,11.40
2022-11-05T12:56:36.625Z,11.40
2022-11-05T12:59:26.614Z,11.50
2022-11-05T13:02:18.249Z,11.60
2022-11-05T13:05:13.035Z,11.70
2022-11-05T13:08:02.586Z,11.90
2022-11-05T13:10:52.311Z,11.90
2022-11-05T13:13:41.978Z,11.90
2022-11-05T13:16:31.317Z,11.90
2022-11-05T13:19:22.310Z,11.80
2022-11-05T13:22:15.408Z,11.80
2022-11-05T13:25:06.190Z,11.80
2022-11-05T13:27:58.537Z,11.80
2022-11-05T13:30:48.511Z,11.90
2022-11-05T13:33:37.576Z,11.90
2022-11-05T13:36:45.901Z,11.90
2022-11-05T13:39:36.192Z,11.80
2022-11-05T13:42:47.069Z,11.70
2022-11-05T13:45:49.210Z,11.60
2022-11-05T13:48:44.262Z,11.70
2022-11-05T13:51:48.857Z,11.60
2022-11-05T13:55:06.814Z,11.60
2022-11-05T13:58:12.568Z,11.60
2022-11-05T14:01:06.898Z,11.60
2022-11-05T14:03:55.578Z,11.60
2022-11-05T14:06:43.352Z,11.70
2022-11-05T14:09:31.249Z,11.70
2022-11-05T14:12:21.284Z,11.80
2022-11-05T14:15:17.454Z,11.80
2022-11-05T14:18:07.350Z,11.80
2022-11-05T14:20:59.710Z,11.70
2022-11-05T14:23:51.278Z,11.70
2022-11-05T14:26:39.004Z,11.70
2022-11-05T14:29:37.058Z,11.60
2022-11-05T14:32:25.841Z,11.60
2022-11-05T14:35:38.593Z,11.70
2022-11-05T14:38:27.142Z,11.60
2022-11-05T14:41:14.884Z,11.60
2022-11-05T14:44:05.977Z,11.60
2022-11-05T14:46:55.636Z,11.60
2022-11-05T14:49:50.628Z,11.50
2022-11-05T14:52:40.786Z,11.50
2022-11-05T14:55:30.536Z,11.50
2022-11-05T14:58:38.069Z,11.50
2022-11-05T15:01:44.672Z,11.50
2022-11-05T15:04:33.273Z,11.50
2022-11-05T15:07:35.890Z,11.50
2022-11-05T15:10:27.802Z,11.50
2022-11-05T15:13:25.314Z,11.40
2022-11-05T15:16:17.241Z,11.50
2022-11-05T15:19:06.503Z,11.50
2022-11-05T15:21:54.942Z,11.40
2022-11-05T15:24:43.240Z,11.40
2022-11-05T15:27:45.852Z,11.40
2022-11-05T15:30:34.998Z,11.30
2022-11-05T15:33:23.252Z,11.20
2022-11-05T15:36:11.945Z,11.20
2022-11-05T15:39:28.942Z,11.10
2022-11-05T15:42:15.249Z,11.10
2022-11-05T15:45:03.018Z,11.10
2022-11-05T15:47:52.058Z,11.00
2022-11-05T15:50:40.261Z,11.00
2022-11-05T15:56:41.049Z,10.90
2022-11-05T15:59:30.033Z,10.90
2022-11-05T16:02:24.807Z,10.90
2022-11-05T16:05:14.599Z,10.80
2022-11-05T16:08:04.213Z,10.80
2022-11-05T16:10:52.818Z,10.70
2022-11-05T16:13:41.300Z,10.70
2022-11-05T16:16:34.284Z,10.70
2022-11-05T16:19:37.093Z,10.70
2022-11-05T16:22:44.715Z,10.70
2022-11-05T16:25:36.258Z,10.60
2022-11-05T16:28:25.071Z,10.60
2022-11-05T16:31:12.801Z,10.60
2022-11-05T16:34:00.606Z,10.50
2022-11-05T16:36:48.365Z,10.60
2022-11-05T16:39:37.466Z,10.50
2022-11-05T16:42:48.333Z,10.50
2022-11-05T16:45:41.267Z,10.50
2022-11-05T16:48:29.821Z,10.40
2022-11-05T16:51:21.018Z,10.40
2022-11-05T16:54:11.644Z,10.40
2022-11-05T16:57:01.029Z,10.30
2022-11-05T16:59:48.864Z,10.30
2022-11-05T17:02:36.858Z,10.30
2022-11-05T17:05:25.769Z,10.30
2022-11-05T17:08:13.977Z,10.30
2022-11-05T17:11:01.867Z,10.30
2022-11-05T17:13:51.058Z,10.30
2022-11-05T17:16:39.308Z,10.20
2022-11-05T17:19:27.054Z,10.10
2022-11-05T17:22:14.851Z,10.20
2022-11-05T17:25:02.582Z,10.20
2022-11-05T17:27:50.358Z,10.10
2022-11-05T17:30:41.717Z,10.10
2022-11-05T17:33:30.115Z,10.10
2022-11-05T17:36:17.858Z,10.10
2022-11-05T17:39:05.609Z,10.10
2022-11-05T17:41:55.428Z,10.00
2022-11-05T17:44:43.188Z,10.10
2022-11-05T17:47:32.405Z,10.00
2022-11-05T17:50:20.361Z,10.00
2022-11-05T17:53:08.174Z,10.00
2022-11-05T17:55:55.892Z,10.00
2022-11-05T17:58:43.768Z,10.00
2022-11-05T18:01:32.794Z,10.00
2022-11-05T18:04:21.941Z,9.90
2022-11-05T18:07:09.708Z,9.90
2022-11-05T18:09:57.466Z,9.90
2022-11-05T18:12:45.875Z,9.90
2022-11-05T18:15:35.471Z,9.90
2022-11-05T18:18:23.288Z,9.80
2022-11-05T18:21:12.561Z,9.80
2022-11-05T18:24:02.857Z,9.80
2022-11-05T18:26:51.073Z,9.80
2022-11-05T18:29:38.835Z,9.80
2022-11-05T18:32:26.809Z,9.70
2022-11-05T18:35:14.743Z,9.70
2022-11-05T18:38:03.845Z,9.60
2022-11-05T18:40:51.538Z,9.60
2022-11-05T18:43:39.262Z,9.60
2022-11-05T18:46:55.845Z,9.60
2022-11-05T18:49:36.154Z,9.60
2022-11-05T18:52:25.820Z,9.50
2022-11-05T18:55:14.935Z,9.60
2022-11-05T18:58:02.640Z,9.50
2022-11-05T19:00:50.376Z,9.50
2022-11-05T19:03:38.088Z,9.60
2022-11-05T19:06:25.962Z,9.50
2022-11-05T19:09:16.816Z,9.50
2022-11-05T19:12:07.065Z,9.50
2022-11-05T19:15:00.915Z,9.50
2022-11-05T19:17:50.006Z,9.40
2022-11-05T19:20:38.140Z,9.40
2022-11-05T19:23:25.879Z,9.40
2022-11-05T19:26:14.569Z,9.40
2022-11-05T19:29:03.947Z,9.40
2022-11-05T19:31:52.861Z,9.30
2022-11-05T19:34:40.563Z,9.30
2022-11-05T19:37:28.336Z,9.30
2022-11-05T19:40:16.124Z,9.20
2022-11-05T19:43:03.891Z,9.30
2022-11-05T19:45:52.959Z,9.20
2022-11-05T19:48:40.724Z,9.20
2022-11-05T19:51:29.770Z,9.20
2022-11-05T19:54:17.570Z,9.10
2022-11-05T19:57:06.389Z,9.20
2022-11-05T19:59:54.108Z,9.10
2022-11-05T20:02:46.216Z,9.10
2022-11-05T20:05:34.355Z,9.10
2022-11-05T20:08:23.820Z,9.10
2022-11-05T20:11:11.896Z,9.10
2022-11-05T20:13:59.695Z,9.00
2022-11-05T20:16:47.798Z,9.10
2022-11-05T20:19:36.867Z,9.00
2022-11-05T20:22:24.710Z,9.00
2022-11-05T20:25:13.007Z,9.00
2022-11-05T20:28:00.854Z,8.90
2022-11-05T20:30:48.813Z,8.90
2022-11-05T20:33:36.566Z,8.90
2022-11-05T20:36:26.858Z,8.90
2022-11-05T20:39:14.637Z,8.90
2022-11-05T20:42:02.545Z,8.90
2022-11-05T20:44:50.277Z,8.90
2022-11-05T20:47:38.479Z,8.80
2022-11-05T20:50:26.217Z,8.80
2022-11-05T20:53:15.346Z,8.80
2022-11-05T20:56:07.600Z,8.80
2022-11-05T20:58:57.801Z,8.80
2022-11-05T21:01:45.738Z,8.70
2022-11-05T21:04:33.566Z,8.70
2022-11-05T21:07:21.312Z,8.70
2022-11-05T21:10:12.932Z,8.70
2022-11-05T21:13:00.656Z,8.70
2022-11-05T21:15:49.077Z,8.70
2022-11-05T21:18:38.374Z,8.70
2022-11-05T21:21:26.169Z,8.70
2022-11-05T21:24:13.894Z,8.70
2022-11-05T21:27:03.495Z,8.60
2022-11-05T21:29:51.380Z,8.60
2022-11-05T21:32:39.416Z,8.60
2022-11-05T21:35:27.182Z,8.60
2022-11-05T21:38:16.049Z,8.60
2022-11-05T21:41:04.276Z,8.50
2022-11-05T21:43:53.482Z,8.50
2022-11-05T21:46:41.264Z,8.50
2022-11-05T21:49:29.131Z,8.50
2022-11-05T21:52:34.670Z,8.40
2022-11-05T21:55:40.127Z,8.40
2022-11-05T21:58:45.354Z,8.40
2022-11-05T22:01:34.774Z,8.40
2022-11-05T22:04:22.570Z,8.40
2022-11-05T22:07:11.188Z,8.40
2022-11-05T22:09:58.907Z,8.40
2022-11-05T22:12:46.916Z,8.40
2022-11-05T22:15:34.796Z,8.40
2022-11-05T22:18:23.855Z,8.40
2022-11-05T22:21:15.954Z,8.40
2022-11-05T22:24:03.753Z,8.40
2022-11-05T22:26:51.695Z,8.50
2022-11-05T22:29:39.571Z,8.50
2022-11-05T22:32:27.644Z,8.40
2022-11-05T22:35:17.200Z,8.40
2022-11-05T22:38:04.988Z,8.40
2022-11-05T22:40:52.743Z,8.40
2022-11-05T22:43:40.623Z,8.40
2022-11-05T22:46:28.461Z,8.40
2022-11-05T22:49:16.192Z,8.30
2022-11-05T22:52:07.820Z,8.40
2022-11-05T22:54:55.506Z,8.30
2022-11-05T22:57:43.322Z,8.40
2022-11-05T23:00:34.670Z,8.40
2022-11-05T23:03:22.529Z,8.30
2022-11-05T23:06:30.260Z,8.30
2022-11-05T23:09:37.473Z,8.30
2022-11-05T23:12:26.476Z,8.20
2022-11-05T23:15:34.275Z,8.20
2022-11-05T23:18:40.774Z,8.30
2022-11-05T23:21:46.344Z,8.30
2022-11-05T23:24:35.527Z,8.20
2022-11-05T23:27:23.259Z,8.20
2022-11-05T23:30:12.011Z,8.20
2022-11-05T23:32:59.434Z,8.30
2022-11-05T23:36:04.776Z,8.30
2022-11-05T23:38:52.486Z,8.30
2022-11-05T23:41:59.312Z,8.30
2022-11-05T23:45:04.657Z,8.30
2022-11-05T23:48:10.464Z,8.30
2022-11-05T23:51:00.672Z,8.30
2022-11-05T23:53:48.425Z,8.40
2022-11-05T23:56:36.217Z,8.40
2022-11-05T23:59:25.339Z,8.40
